sensor_id;sensor_type;location;lat;lon;timestamp;P1;durP1;ratioP1;P2;durP2;ratioP2
74898;SDS011;63458;48.210;16.338;2022-11-20T00:01:23;24.20;;;12.82;;
74898;SDS011;63458;48.210;16.338;2022-11-20T00:03:53;23.65;;;13.40;;
74898;SDS011;63458;48.210;16.338;2022-11-20T00:06:20;21.83;;;12.60;;
74898;SDS011;63458;48.210;16.338;2022-11-20T00:08:47;27.10;;;12.77;;
74898;SDS011;63458;48.210;16.338;2022-11-20T00:11:15;26.77;;;14.45;;
74898;SDS011;63458;48.210;16.338;2022-11-20T00:13:41;28.65;;;13.77;;
74898;SDS011;63458;48.210;16.338;2022-11-20T00:16:08;25.67;;;14.25;;
74898;SDS011;63458;48.210;16.338;2022-11-20T00:18:35;28.00;;;14.05;;
74898;SDS011;63458;48.210;16.338;2022-11-20T00:21:04;25.00;;;13.27;;
74898;SDS011;63458;48.210;16.338;2022-11-20T00:23:31;23.17;;;12.80;;
74898;SDS011;63458;48.210;16.338;2022-11-20T00:26:00;24.38;;;13.43;;
74898;SDS011;63458;48.210;16.338;2022-11-20T00:28:26;22.90;;;13.35;;
74898;SDS011;63458;48.210;16.338;2022-11-20T00:30:54;24.60;;;11.90;;
74898;SDS011;63458;48.210;16.338;2022-11-20T00:33:25;27.75;;;12.60;;
74898;SDS011;63458;48.210;16.338;2022-11-20T00:35:51;26.55;;;12.60;;
74898;SDS011;63458;48.210;16.338;2022-11-20T00:38:17;24.65;;;13.68;;
74898;SDS011;63458;48.210;16.338;2022-11-20T00:40:43;23.25;;;12.82;;
74898;SDS011;63458;48.210;16.338;2022-11-20T00:43:09;24.98;;;13.52;;
74898;SDS011;63458;48.210;16.338;2022-11-20T00:45:35;24.23;;;12.18;;
74898;SDS011;63458;48.210;16.338;2022-11-20T00:48:01;25.05;;;13.07;;
74898;SDS011;63458;48.210;16.338;2022-11-20T00:50:27;23.10;;;12.30;;
74898;SDS011;63458;48.210;16.338;2022-11-20T00:52:53;23.05;;;11.25;;
74898;SDS011;63458;48.210;16.338;2022-11-20T00:55:19;24.52;;;12.70;;
74898;SDS011;63458;48.210;16.338;2022-11-20T00:57:45;21.48;;;11.38;;
74898;SDS011;63458;48.210;16.338;2022-11-20T01:00:11;22.25;;;11.88;;
74898;SDS011;63458;48.210;16.338;2022-11-20T01:02:37;21.92;;;12.10;;
74898;SDS011;63458;48.210;16.338;2022-11-20T01:05:03;24.95;;;12.90;;
74898;SDS011;63458;48.210;16.338;2022-11-20T01:07:29;23.70;;;11.95;;
74898;SDS011;63458;48.210;16.338;2022-11-20T01:09:55;21.88;;;12.05;;
74898;SDS011;63458;48.210;16.338;2022-11-20T01:12:21;20.95;;;13.02;;
74898;SDS011;63458;48.210;16.338;2022-11-20T01:14:47;21.92;;;11.77;;
74898;SDS011;63458;48.210;16.338;2022-11-20T01:17:13;20.83;;;11.48;;
74898;SDS011;63458;48.210;16.338;2022-11-20T01:19:39;23.45;;;13.10;;
74898;SDS011;63458;48.210;16.338;2022-11-20T01:22:05;21.80;;;11.65;;
74898;SDS011;63458;48.210;16.338;2022-11-20T01:24:31;21.88;;;12.50;;
74898;SDS011;63458;48.210;16.338;2022-11-20T01:26:57;21.85;;;12.13;;
74898;SDS011;63458;48.210;16.338;2022-11-20T01:29:23;22.88;;;12.05;;
74898;SDS011;63458;48.210;16.338;2022-11-20T01:31:50;23.10;;;12.18;;
74898;SDS011;63458;48.210;16.338;2022-11-20T01:34:17;23.17;;;13.25;;
74898;SDS011;63458;48.210;16.338;2022-11-20T01:36:44;23.45;;;12.38;;
74898;SDS011;63458;48.210;16.338;2022-11-20T01:39:12;21.50;;;11.35;;
74898;SDS011;63458;48.210;16.338;2022-11-20T01:41:38;22.85;;;11.65;;
74898;SDS011;63458;48.210;16.338;2022-11-20T01:47:07;21.95;;;11.95;;
74898;SDS011;63458;48.210;16.338;2022-11-20T01:49:42;25.38;;;13.00;;
74898;SDS011;63458;48.210;16.338;2022-11-20T01:52:17;22.00;;;11.75;;
74898;SDS011;63458;48.210;16.338;2022-11-20T01:57:10;22.08;;;11.43;;
74898;SDS011;63458;48.210;16.338;2022-11-20T01:59:38;22.13;;;12.10;;
74898;SDS011;63458;48.210;16.338;2022-11-20T02:02:06;21.75;;;13.00;;
74898;SDS011;63458;48.210;16.338;2022-11-20T02:04:32;26.27;;;13.68;;
74898;SDS011;63458;48.210;16.338;2022-11-20T02:07:03;24.98;;;13.55;;
74898;SDS011;63458;48.210;16.338;2022-11-20T02:09:29;23.60;;;12.18;;
74898;SDS011;63458;48.210;16.338;2022-11-20T02:11:55;24.27;;;12.75;;
74898;SDS011;63458;48.210;16.338;2022-11-20T02:14:22;22.77;;;12.63;;
74898;SDS011;63458;48.210;16.338;2022-11-20T02:16:48;24.17;;;13.07;;
74898;SDS011;63458;48.210;16.338;2022-11-20T02:26:44;21.85;;;12.82;;
74898;SDS011;63458;48.210;16.338;2022-11-20T02:29:11;24.67;;;12.73;;
74898;SDS011;63458;48.210;16.338;2022-11-20T02:31:38;25.45;;;13.15;;
74898;SDS011;63458;48.210;16.338;2022-11-20T02:34:05;24.77;;;12.90;;
74898;SDS011;63458;48.210;16.338;2022-11-20T02:36:32;23.27;;;12.73;;
74898;SDS011;63458;48.210;16.338;2022-11-20T02:38:58;24.77;;;13.82;;
74898;SDS011;63458;48.210;16.338;2022-11-20T02:41:34;24.60;;;13.25;;
74898;SDS011;63458;48.210;16.338;2022-11-20T02:44:01;27.90;;;14.30;;
74898;SDS011;63458;48.210;16.338;2022-11-20T02:46:27;25.95;;;13.85;;
74898;SDS011;63458;48.210;16.338;2022-11-20T02:48:53;25.20;;;13.98;;
74898;SDS011;63458;48.210;16.338;2022-11-20T02:51:19;24.45;;;12.85;;
74898;SDS011;63458;48.210;16.338;2022-11-20T02:53:45;23.67;;;11.48;;
74898;SDS011;63458;48.210;16.338;2022-11-20T02:56:11;26.23;;;13.35;;
74898;SDS011;63458;48.210;16.338;2022-11-20T02:58:37;25.80;;;14.45;;
74898;SDS011;63458;48.210;16.338;2022-11-20T03:01:03;27.88;;;13.38;;
74898;SDS011;63458;48.210;16.338;2022-11-20T03:03:29;25.02;;;13.48;;
74898;SDS011;63458;48.210;16.338;2022-11-20T03:05:55;24.60;;;13.55;;
74898;SDS011;63458;48.210;16.338;2022-11-20T03:08:24;25.02;;;13.38;;
74898;SDS011;63458;48.210;16.338;2022-11-20T03:10:50;25.38;;;13.85;;
74898;SDS011;63458;48.210;16.338;2022-11-20T03:13:16;24.15;;;13.02;;
74898;SDS011;63458;48.210;16.338;2022-11-20T03:15:42;23.75;;;13.02;;
74898;SDS011;63458;48.210;16.338;2022-11-20T03:18:08;28.17;;;12.52;;
74898;SDS011;63458;48.210;16.338;2022-11-20T03:20:34;25.75;;;13.35;;
74898;SDS011;63458;48.210;16.338;2022-11-20T03:23:00;28.40;;;13.45;;
74898;SDS011;63458;48.210;16.338;2022-11-20T03:25:26;24.25;;;13.80;;
74898;SDS011;63458;48.210;16.338;2022-11-20T03:27:53;24.13;;;13.77;;
74898;SDS011;63458;48.210;16.338;2022-11-20T03:30:19;28.63;;;14.35;;
74898;SDS011;63458;48.210;16.338;2022-11-20T03:32:45;22.88;;;12.93;;
74898;SDS011;63458;48.210;16.338;2022-11-20T03:35:11;25.63;;;13.60;;
74898;SDS011;63458;48.210;16.338;2022-11-20T03:37:37;28.13;;;14.70;;
74898;SDS011;63458;48.210;16.338;2022-11-20T03:40:03;27.48;;;14.20;;
74898;SDS011;63458;48.210;16.338;2022-11-20T03:42:29;26.35;;;13.10;;
74898;SDS011;63458;48.210;16.338;2022-11-20T03:45:11;26.10;;;14.23;;
74898;SDS011;63458;48.210;16.338;2022-11-20T03:47:38;25.35;;;12.57;;
74898;SDS011;63458;48.210;16.338;2022-11-20T03:50:04;27.58;;;14.55;;
74898;SDS011;63458;48.210;16.338;2022-11-20T03:52:30;27.10;;;13.18;;
74898;SDS011;63458;48.210;16.338;2022-11-20T03:54:56;25.73;;;13.10;;
74898;SDS011;63458;48.210;16.338;2022-11-20T03:57:22;25.90;;;14.00;;
74898;SDS011;63458;48.210;16.338;2022-11-20T03:59:48;24.88;;;12.55;;
74898;SDS011;63458;48.210;16.338;2022-11-20T04:02:14;26.38;;;13.70;;
74898;SDS011;63458;48.210;16.338;2022-11-20T04:04:40;24.58;;;12.85;;
74898;SDS011;63458;48.210;16.338;2022-11-20T04:07:06;27.27;;;13.70;;
74898;SDS011;63458;48.210;16.338;2022-11-20T04:09:32;27.23;;;13.82;;
74898;SDS011;63458;48.210;16.338;2022-11-20T04:11:58;26.13;;;14.45;;
74898;SDS011;63458;48.210;16.338;2022-11-20T04:14:24;27.75;;;13.80;;
74898;SDS011;63458;48.210;16.338;2022-11-20T04:16:50;28.00;;;14.90;;
74898;SDS011;63458;48.210;16.338;2022-11-20T04:19:16;24.30;;;12.35;;
74898;SDS011;63458;48.210;16.338;2022-11-20T04:21:43;23.70;;;13.48;;
74898;SDS011;63458;48.210;16.338;2022-11-20T04:24:09;23.40;;;13.30;;
74898;SDS011;63458;48.210;16.338;2022-11-20T04:26:38;25.35;;;12.50;;
74898;SDS011;63458;48.210;16.338;2022-11-20T04:29:04;27.20;;;13.40;;
74898;SDS011;63458;48.210;16.338;2022-11-20T04:31:31;24.67;;;13.27;;
74898;SDS011;63458;48.210;16.338;2022-11-20T04:34:04;23.45;;;12.52;;
74898;SDS011;63458;48.210;16.338;2022-11-20T04:36:31;23.70;;;12.23;;
74898;SDS011;63458;48.210;16.338;2022-11-20T04:38:59;23.27;;;13.35;;
74898;SDS011;63458;48.210;16.338;2022-11-20T04:41:26;26.23;;;13.40;;
74898;SDS011;63458;48.210;16.338;2022-11-20T04:43:53;25.38;;;13.35;;
74898;SDS011;63458;48.210;16.338;2022-11-20T04:46:24;25.35;;;12.95;;
74898;SDS011;63458;48.210;16.338;2022-11-20T04:48:50;25.48;;;13.13;;
74898;SDS011;63458;48.210;16.338;2022-11-20T04:51:16;25.20;;;13.10;;
74898;SDS011;63458;48.210;16.338;2022-11-20T04:53:42;26.92;;;14.88;;
74898;SDS011;63458;48.210;16.338;2022-11-20T04:56:09;28.10;;;13.13;;
74898;SDS011;63458;48.210;16.338;2022-11-20T04:58:35;27.95;;;15.18;;
74898;SDS011;63458;48.210;16.338;2022-11-20T05:01:20;26.33;;;14.10;;
74898;SDS011;63458;48.210;16.338;2022-11-20T05:03:47;25.98;;;14.18;;
74898;SDS011;63458;48.210;16.338;2022-11-20T05:06:14;26.65;;;13.20;;
74898;SDS011;63458;48.210;16.338;2022-11-20T05:08:40;25.02;;;13.38;;
74898;SDS011;63458;48.210;16.338;2022-11-20T05:11:08;24.90;;;13.75;;
74898;SDS011;63458;48.210;16.338;2022-11-20T05:13:34;24.17;;;12.93;;
74898;SDS011;63458;48.210;16.338;2022-11-20T05:16:01;26.58;;;13.70;;
74898;SDS011;63458;48.210;16.338;2022-11-20T05:18:27;22.88;;;13.05;;
74898;SDS011;63458;48.210;16.338;2022-11-20T05:20:57;25.42;;;12.52;;
74898;SDS011;63458;48.210;16.338;2022-11-20T05:23:23;26.08;;;12.82;;
74898;SDS011;63458;48.210;16.338;2022-11-20T05:25:53;21.33;;;11.32;;
74898;SDS011;63458;48.210;16.338;2022-11-20T05:28:19;26.55;;;13.55;;
74898;SDS011;63458;48.210;16.338;2022-11-20T05:30:45;22.05;;;11.50;;
74898;SDS011;63458;48.210;16.338;2022-11-20T05:33:11;22.38;;;11.98;;
74898;SDS011;63458;48.210;16.338;2022-11-20T05:35:37;24.33;;;12.70;;
74898;SDS011;63458;48.210;16.338;2022-11-20T05:38:03;22.88;;;12.32;;
74898;SDS011;63458;48.210;16.338;2022-11-20T05:40:29;25.13;;;13.07;;
74898;SDS011;63458;48.210;16.338;2022-11-20T05:42:55;23.25;;;13.07;;
74898;SDS011;63458;48.210;16.338;2022-11-20T05:45:21;23.15;;;11.98;;
74898;SDS011;63458;48.210;16.338;2022-11-20T05:47:47;25.17;;;12.88;;
74898;SDS011;63458;48.210;16.338;2022-11-20T05:50:14;24.13;;;13.50;;
74898;SDS011;63458;48.210;16.338;2022-11-20T05:52:40;23.20;;;11.57;;
74898;SDS011;63458;48.210;16.338;2022-11-20T05:55:06;22.95;;;12.15;;
74898;SDS011;63458;48.210;16.338;2022-11-20T05:57:32;23.17;;;11.93;;
74898;SDS011;63458;48.210;16.338;2022-11-20T05:59:58;23.13;;;11.90;;
74898;SDS011;63458;48.210;16.338;2022-11-20T06:02:24;27.13;;;13.05;;
74898;SDS011;63458;48.210;16.338;2022-11-20T06:04:50;23.10;;;12.15;;
74898;SDS011;63458;48.210;16.338;2022-11-20T06:07:16;25.58;;;13.68;;
74898;SDS011;63458;48.210;16.338;2022-11-20T06:09:42;26.77;;;12.63;;
74898;SDS011;63458;48.210;16.338;2022-11-20T06:12:09;26.30;;;12.80;;
74898;SDS011;63458;48.210;16.338;2022-11-20T06:14:35;26.42;;;13.52;;
74898;SDS011;63458;48.210;16.338;2022-11-20T06:17:01;23.73;;;12.65;;
74898;SDS011;63458;48.210;16.338;2022-11-20T06:19:27;23.98;;;12.75;;
74898;SDS011;63458;48.210;16.338;2022-11-20T06:21:53;26.20;;;12.52;;
74898;SDS011;63458;48.210;16.338;2022-11-20T06:24:19;26.75;;;13.55;;
74898;SDS011;63458;48.210;16.338;2022-11-20T06:26:44;25.33;;;13.23;;
74898;SDS011;63458;48.210;16.338;2022-11-20T06:29:10;25.27;;;14.13;;
74898;SDS011;63458;48.210;16.338;2022-11-20T06:31:37;24.67;;;13.70;;
74898;SDS011;63458;48.210;16.338;2022-11-20T06:34:03;23.88;;;12.13;;
74898;SDS011;63458;48.210;16.338;2022-11-20T06:36:30;27.15;;;13.63;;
74898;SDS011;63458;48.210;16.338;2022-11-20T06:38:57;31.48;;;16.42;;
74898;SDS011;63458;48.210;16.338;2022-11-20T06:41:23;37.67;;;23.23;;
74898;SDS011;63458;48.210;16.338;2022-11-20T06:43:50;33.08;;;18.45;;
74898;SDS011;63458;48.210;16.338;2022-11-20T06:46:16;33.30;;;19.20;;
74898;SDS011;63458;48.210;16.338;2022-11-20T06:48:43;28.77;;;14.60;;
74898;SDS011;63458;48.210;16.338;2022-11-20T06:51:09;25.73;;;13.50;;
74898;SDS011;63458;48.210;16.338;2022-11-20T06:53:36;26.60;;;14.82;;
74898;SDS011;63458;48.210;16.338;2022-11-20T06:56:02;25.42;;;13.65;;
74898;SDS011;63458;48.210;16.338;2022-11-20T06:58:29;26.90;;;13.57;;
74898;SDS011;63458;48.210;16.338;2022-11-20T07:00:58;29.33;;;14.60;;
74898;SDS011;63458;48.210;16.338;2022-11-20T07:03:25;26.80;;;13.98;;
74898;SDS011;63458;48.210;16.338;2022-11-20T07:05:51;26.05;;;13.65;;
74898;SDS011;63458;48.210;16.338;2022-11-20T07:08:17;27.77;;;13.68;;
74898;SDS011;63458;48.210;16.338;2022-11-20T07:10:43;28.50;;;14.65;;
74898;SDS011;63458;48.210;16.338;2022-11-20T07:13:09;27.10;;;14.43;;
74898;SDS011;63458;48.210;16.338;2022-11-20T07:15:35;26.05;;;14.40;;
74898;SDS011;63458;48.210;16.338;2022-11-20T07:18:01;26.75;;;14.75;;
74898;SDS011;63458;48.210;16.338;2022-11-20T07:20:27;26.30;;;13.45;;
74898;SDS011;63458;48.210;16.338;2022-11-20T07:22:56;27.30;;;14.13;;
74898;SDS011;63458;48.210;16.338;2022-11-20T07:25:23;28.85;;;13.77;;
74898;SDS011;63458;48.210;16.338;2022-11-20T07:27:49;26.35;;;13.57;;
74898;SDS011;63458;48.210;16.338;2022-11-20T07:30:16;27.35;;;14.73;;
74898;SDS011;63458;48.210;16.338;2022-11-20T07:32:42;24.83;;;14.55;;
74898;SDS011;63458;48.210;16.338;2022-11-20T07:35:08;24.63;;;13.75;;
74898;SDS011;63458;48.210;16.338;2022-11-20T07:37:34;25.13;;;13.75;;
74898;SDS011;63458;48.210;16.338;2022-11-20T07:40:00;29.70;;;14.88;;
74898;SDS011;63458;48.210;16.338;2022-11-20T07:42:26;27.20;;;13.65;;
74898;SDS011;63458;48.210;16.338;2022-11-20T07:44:52;25.33;;;13.18;;
74898;SDS011;63458;48.210;16.338;2022-11-20T07:47:18;27.30;;;14.43;;
74898;SDS011;63458;48.210;16.338;2022-11-20T07:49:44;26.30;;;14.13;;
74898;SDS011;63458;48.210;16.338;2022-11-20T07:52:10;25.00;;;13.07;;
74898;SDS011;63458;48.210;16.338;2022-11-20T07:54:37;29.20;;;13.90;;
74898;SDS011;63458;48.210;16.338;2022-11-20T07:57:03;27.73;;;13.60;;
74898;SDS011;63458;48.210;16.338;2022-11-20T07:59:29;26.75;;;14.30;;
74898;SDS011;63458;48.210;16.338;2022-11-20T08:01:55;27.63;;;14.02;;
74898;SDS011;63458;48.210;16.338;2022-11-20T08:04:21;26.95;;;14.38;;
74898;SDS011;63458;48.210;16.338;2022-11-20T08:06:48;29.55;;;16.42;;
74898;SDS011;63458;48.210;16.338;2022-11-20T08:09:14;29.15;;;14.98;;
74898;SDS011;63458;48.210;16.338;2022-11-20T08:11:40;26.98;;;14.23;;
74898;SDS011;63458;48.210;16.338;2022-11-20T08:14:24;28.65;;;13.85;;
74898;SDS011;63458;48.210;16.338;2022-11-20T08:16:52;30.10;;;15.57;;
74898;SDS011;63458;48.210;16.338;2022-11-20T08:19:18;27.55;;;14.40;;
74898;SDS011;63458;48.210;16.338;2022-11-20T08:21:44;31.02;;;16.10;;
74898;SDS011;63458;48.210;16.338;2022-11-20T08:24:10;30.83;;;16.55;;
74898;SDS011;63458;48.210;16.338;2022-11-20T08:26:37;35.33;;;21.35;;
74898;SDS011;63458;48.210;16.338;2022-11-20T08:29:03;27.98;;;16.13;;
74898;SDS011;63458;48.210;16.338;2022-11-20T08:31:30;29.98;;;15.07;;
74898;SDS011;63458;48.210;16.338;2022-11-20T08:33:56;27.77;;;15.60;;
74898;SDS011;63458;48.210;16.338;2022-11-20T08:36:23;31.42;;;15.65;;
74898;SDS011;63458;48.210;16.338;2022-11-20T08:38:50;26.45;;;14.63;;
74898;SDS011;63458;48.210;16.338;2022-11-20T08:41:16;29.27;;;15.60;;
74898;SDS011;63458;48.210;16.338;2022-11-20T08:43:49;26.60;;;15.18;;
74898;SDS011;63458;48.210;16.338;2022-11-20T08:46:15;29.63;;;15.50;;
74898;SDS011;63458;48.210;16.338;2022-11-20T08:48:41;29.40;;;15.15;;
74898;SDS011;63458;48.210;16.338;2022-11-20T08:51:07;30.40;;;17.33;;
74898;SDS011;63458;48.210;16.338;2022-11-20T08:53:34;29.95;;;15.82;;
74898;SDS011;63458;48.210;16.338;2022-11-20T08:56:00;27.00;;;14.43;;
74898;SDS011;63458;48.210;16.338;2022-11-20T08:58:26;26.40;;;14.77;;
74898;SDS011;63458;48.210;16.338;2022-11-20T09:00:52;28.67;;;14.70;;
74898;SDS011;63458;48.210;16.338;2022-11-20T09:03:18;28.15;;;15.82;;
74898;SDS011;63458;48.210;16.338;2022-11-20T09:05:44;28.63;;;15.65;;
74898;SDS011;63458;48.210;16.338;2022-11-20T09:08:11;30.88;;;15.10;;
74898;SDS011;63458;48.210;16.338;2022-11-20T09:10:37;28.92;;;16.42;;
74898;SDS011;63458;48.210;16.338;2022-11-20T09:13:06;25.75;;;14.25;;
74898;SDS011;63458;48.210;16.338;2022-11-20T09:15:32;33.55;;;17.58;;
74898;SDS011;63458;48.210;16.338;2022-11-20T09:17:59;31.83;;;17.48;;
74898;SDS011;63458;48.210;16.338;2022-11-20T09:20:26;32.90;;;17.15;;
74898;SDS011;63458;48.210;16.338;2022-11-20T09:22:54;33.33;;;18.13;;
74898;SDS011;63458;48.210;16.338;2022-11-20T09:25:20;32.90;;;16.83;;
74898;SDS011;63458;48.210;16.338;2022-11-20T09:27:46;31.08;;;17.60;;
74898;SDS011;63458;48.210;16.338;2022-11-20T09:30:13;32.67;;;16.08;;
74898;SDS011;63458;48.210;16.338;2022-11-20T09:32:40;30.38;;;17.05;;
74898;SDS011;63458;48.210;16.338;2022-11-20T09:35:06;32.63;;;17.17;;
74898;SDS011;63458;48.210;16.338;2022-11-20T09:37:32;32.35;;;16.88;;
74898;SDS011;63458;48.210;16.338;2022-11-20T09:39:59;31.75;;;17.20;;
74898;SDS011;63458;48.210;16.338;2022-11-20T09:50:17;26.45;;;14.57;;
74898;SDS011;63458;48.210;16.338;2022-11-20T09:55:18;28.33;;;16.67;;
74898;SDS011;63458;48.210;16.338;2022-11-20T09:57:44;28.95;;;15.35;;
74898;SDS011;63458;48.210;16.338;2022-11-20T10:00:12;29.55;;;17.10;;
74898;SDS011;63458;48.210;16.338;2022-11-20T10:02:46;32.22;;;17.42;;
74898;SDS011;63458;48.210;16.338;2022-11-20T10:07:53;31.75;;;16.63;;
74898;SDS011;63458;48.210;16.338;2022-11-20T10:13:09;29.05;;;16.88;;
74898;SDS011;63458;48.210;16.338;2022-11-20T10:18:16;29.65;;;15.57;;
74898;SDS011;63458;48.210;16.338;2022-11-20T10:20:55;31.02;;;16.17;;
74898;SDS011;63458;48.210;16.338;2022-11-20T10:30:58;32.35;;;17.10;;
74898;SDS011;63458;48.210;16.338;2022-11-20T10:33:26;50.97;;;26.40;;
74898;SDS011;63458;48.210;16.338;2022-11-20T10:36:00;42.45;;;22.75;;
74898;SDS011;63458;48.210;16.338;2022-11-20T10:38:33;33.58;;;17.52;;
74898;SDS011;63458;48.210;16.338;2022-11-20T10:41:02;34.58;;;18.65;;
74898;SDS011;63458;48.210;16.338;2022-11-20T10:43:47;33.88;;;17.33;;
74898;SDS011;63458;48.210;16.338;2022-11-20T10:46:15;32.13;;;16.80;;
74898;SDS011;63458;48.210;16.338;2022-11-20T10:48:43;31.38;;;17.02;;
74898;SDS011;63458;48.210;16.338;2022-11-20T10:51:18;31.23;;;17.17;;
74898;SDS011;63458;48.210;16.338;2022-11-20T11:01:23;34.05;;;18.05;;
74898;SDS011;63458;48.210;16.338;2022-11-20T11:03:51;29.30;;;17.67;;
74898;SDS011;63458;48.210;16.338;2022-11-20T11:06:21;28.92;;;16.27;;
74898;SDS011;63458;48.210;16.338;2022-11-20T11:08:49;33.28;;;18.98;;
74898;SDS011;63458;48.210;16.338;2022-11-20T11:11:21;30.88;;;18.00;;
74898;SDS011;63458;48.210;16.338;2022-11-20T11:13:48;35.58;;;17.65;;
74898;SDS011;63458;48.210;16.338;2022-11-20T11:16:25;33.85;;;17.90;;
74898;SDS011;63458;48.210;16.338;2022-11-20T11:18:51;34.28;;;18.25;;
74898;SDS011;63458;48.210;16.338;2022-11-20T11:21:23;34.72;;;20.70;;
74898;SDS011;63458;48.210;16.338;2022-11-20T11:24:00;32.50;;;17.70;;
74898;SDS011;63458;48.210;16.338;2022-11-20T11:26:26;32.50;;;17.80;;
74898;SDS011;63458;48.210;16.338;2022-11-20T11:28:56;32.17;;;18.02;;
74898;SDS011;63458;48.210;16.338;2022-11-20T11:31:24;31.17;;;17.60;;
74898;SDS011;63458;48.210;16.338;2022-11-20T11:33:50;83.72;;;36.17;;
74898;SDS011;63458;48.210;16.338;2022-11-20T11:36:19;134.98;;;74.00;;
74898;SDS011;63458;48.210;16.338;2022-11-20T11:38:48;43.08;;;22.92;;
74898;SDS011;63458;48.210;16.338;2022-11-20T11:41:19;33.95;;;18.67;;
74898;SDS011;63458;48.210;16.338;2022-11-20T11:43:52;31.35;;;19.35;;
74898;SDS011;63458;48.210;16.338;2022-11-20T11:46:38;29.70;;;17.90;;
74898;SDS011;63458;48.210;16.338;2022-11-20T11:54:17;33.65;;;19.50;;
74898;SDS011;63458;48.210;16.338;2022-11-20T11:56:45;32.08;;;18.30;;
74898;SDS011;63458;48.210;16.338;2022-11-20T11:59:14;30.73;;;17.42;;
74898;SDS011;63458;48.210;16.338;2022-11-20T12:01:47;32.05;;;19.30;;
74898;SDS011;63458;48.210;16.338;2022-11-20T12:06:42;31.83;;;19.92;;
74898;SDS011;63458;48.210;16.338;2022-11-20T12:09:10;29.60;;;18.55;;
74898;SDS011;63458;48.210;16.338;2022-11-20T12:14:27;88.57;;;48.88;;
74898;SDS011;63458;48.210;16.338;2022-11-20T12:16:56;30.00;;;17.15;;
74898;SDS011;63458;48.210;16.338;2022-11-20T12:19:22;31.10;;;18.73;;
74898;SDS011;63458;48.210;16.338;2022-11-20T12:21:54;26.55;;;17.48;;
74898;SDS011;63458;48.210;16.338;2022-11-20T12:27:05;73.63;;;43.67;;
74898;SDS011;63458;48.210;16.338;2022-11-20T12:34:46;50.45;;;31.23;;
74898;SDS011;63458;48.210;16.338;2022-11-20T12:37:23;92.35;;;56.92;;
74898;SDS011;63458;48.210;16.338;2022-11-20T12:39:56;69.80;;;41.60;;
74898;SDS011;63458;48.210;16.338;2022-11-20T12:45:42;43.08;;;25.65;;
74898;SDS011;63458;48.210;16.338;2022-11-20T12:48:36;38.55;;;22.77;;
74898;SDS011;63458;48.210;16.338;2022-11-20T13:01:36;28.98;;;18.63;;
74898;SDS011;63458;48.210;16.338;2022-11-20T13:06:46;29.98;;;18.25;;
74898;SDS011;63458;48.210;16.338;2022-11-20T13:09:16;28.80;;;19.05;;
74898;SDS011;63458;48.210;16.338;2022-11-20T13:14:29;31.42;;;20.13;;
74898;SDS011;63458;48.210;16.338;2022-11-20T13:16:58;51.42;;;31.90;;
74898;SDS011;63458;48.210;16.338;2022-11-20T13:19:26;29.60;;;20.90;;
74898;SDS011;63458;48.210;16.338;2022-11-20T13:21:53;54.05;;;35.35;;
74898;SDS011;63458;48.210;16.338;2022-11-20T13:29:29;31.70;;;20.05;;
74898;SDS011;63458;48.210;16.338;2022-11-20T13:32:06;32.80;;;19.90;;
74898;SDS011;63458;48.210;16.338;2022-11-20T13:34:34;30.90;;;20.90;;
74898;SDS011;63458;48.210;16.338;2022-11-20T13:37:01;47.97;;;29.25;;
74898;SDS011;63458;48.210;16.338;2022-11-20T13:39:37;31.60;;;19.70;;
74898;SDS011;63458;48.210;16.338;2022-11-20T13:44:42;30.38;;;18.58;;
74898;SDS011;63458;48.210;16.338;2022-11-20T13:47:27;31.00;;;21.75;;
74898;SDS011;63458;48.210;16.338;2022-11-20T13:49:54;28.73;;;18.23;;
74898;SDS011;63458;48.210;16.338;2022-11-20T14:00:17;29.20;;;17.20;;
74898;SDS011;63458;48.210;16.338;2022-11-20T14:02:44;32.10;;;18.88;;
74898;SDS011;63458;48.210;16.338;2022-11-20T14:05:20;29.65;;;17.77;;
74898;SDS011;63458;48.210;16.338;2022-11-20T14:07:47;32.08;;;20.85;;
74898;SDS011;63458;48.210;16.338;2022-11-20T14:10:25;31.83;;;19.80;;
74898;SDS011;63458;48.210;16.338;2022-11-20T14:12:51;34.63;;;22.02;;
74898;SDS011;63458;48.210;16.338;2022-11-20T14:15:31;31.60;;;19.55;;
74898;SDS011;63458;48.210;16.338;2022-11-20T14:17:58;29.65;;;17.38;;
74898;SDS011;63458;48.210;16.338;2022-11-20T14:20:26;39.10;;;23.45;;
74898;SDS011;63458;48.210;16.338;2022-11-20T14:22:53;33.05;;;19.70;;
74898;SDS011;63458;48.210;16.338;2022-11-20T14:25:24;30.33;;;18.90;;
74898;SDS011;63458;48.210;16.338;2022-11-20T14:27:58;30.85;;;18.45;;
74898;SDS011;63458;48.210;16.338;2022-11-20T14:30:28;30.52;;;19.52;;
74898;SDS011;63458;48.210;16.338;2022-11-20T14:33:03;28.13;;;18.02;;
74898;SDS011;63458;48.210;16.338;2022-11-20T14:35:31;30.13;;;20.05;;
74898;SDS011;63458;48.210;16.338;2022-11-20T14:37:57;29.95;;;18.90;;
74898;SDS011;63458;48.210;16.338;2022-11-20T14:40:29;32.65;;;19.13;;
74898;SDS011;63458;48.210;16.338;2022-11-20T14:42:56;78.13;;;40.38;;
74898;SDS011;63458;48.210;16.338;2022-11-20T14:45:22;35.78;;;21.15;;
74898;SDS011;63458;48.210;16.338;2022-11-20T14:47:49;31.05;;;18.35;;
74898;SDS011;63458;48.210;16.338;2022-11-20T14:50:18;33.50;;;17.83;;
74898;SDS011;63458;48.210;16.338;2022-11-20T14:52:55;34.10;;;20.73;;
74898;SDS011;63458;48.210;16.338;2022-11-20T14:55:25;35.67;;;22.20;;
74898;SDS011;63458;48.210;16.338;2022-11-20T14:57:59;32.28;;;19.35;;
74898;SDS011;63458;48.210;16.338;2022-11-20T15:00:26;34.13;;;20.02;;
74898;SDS011;63458;48.210;16.338;2022-11-20T15:02:52;32.85;;;18.13;;
74898;SDS011;63458;48.210;16.338;2022-11-20T15:05:20;31.17;;;19.27;;
74898;SDS011;63458;48.210;16.338;2022-11-20T15:07:47;34.00;;;19.95;;
74898;SDS011;63458;48.210;16.338;2022-11-20T15:12:52;31.52;;;19.90;;
74898;SDS011;63458;48.210;16.338;2022-11-20T15:15:43;34.42;;;21.55;;
74898;SDS011;63458;48.210;16.338;2022-11-20T15:18:09;38.30;;;23.02;;
74898;SDS011;63458;48.210;16.338;2022-11-20T15:20:36;54.88;;;31.25;;
74898;SDS011;63458;48.210;16.338;2022-11-20T15:23:07;47.33;;;27.73;;
74898;SDS011;63458;48.210;16.338;2022-11-20T15:25:34;75.50;;;46.55;;
74898;SDS011;63458;48.210;16.338;2022-11-20T15:28:01;49.05;;;29.15;;
74898;SDS011;63458;48.210;16.338;2022-11-20T15:30:27;38.58;;;23.90;;
74898;SDS011;63458;48.210;16.338;2022-11-20T15:32:53;47.97;;;29.02;;
74898;SDS011;63458;48.210;16.338;2022-11-20T15:35:19;92.43;;;48.25;;
74898;SDS011;63458;48.210;16.338;2022-11-20T15:37:45;52.15;;;29.45;;
74898;SDS011;63458;48.210;16.338;2022-11-20T15:40:12;42.25;;;26.05;;
74898;SDS011;63458;48.210;16.338;2022-11-20T15:42:38;40.10;;;25.20;;
74898;SDS011;63458;48.210;16.338;2022-11-20T15:45:24;36.42;;;21.23;;
74898;SDS011;63458;48.210;16.338;2022-11-20T15:47:50;39.13;;;21.90;;
74898;SDS011;63458;48.210;16.338;2022-11-20T15:50:16;37.67;;;21.40;;
74898;SDS011;63458;48.210;16.338;2022-11-20T15:52:43;39.30;;;22.02;;
74898;SDS011;63458;48.210;16.338;2022-11-20T15:55:09;55.55;;;32.60;;